sensor_id;sensor_type;location;lat;lon;timestamp;P1;durP1;ratioP1;P2;durP2;ratioP2
15629;SDS011;7914;50.842;0.166;2024-02-15T00:01:10;19.23;;;5.22;;
15629;SDS011;7914;50.842;0.166;2024-02-15T00:03:36;13.15;;;4.57;;
15629;SDS011;7914;50.842;0.166;2024-02-15T00:06:02;18.25;;;4.75;;
15629;SDS011;7914;50.842;0.166;2024-02-15T00:08:31;16.40;;;4.53;;
15629;SDS011;7914;50.842;0.166;2024-02-15T00:10:57;16.02;;;4.90;;
15629;SDS011;7914;50.842;0.166;2024-02-15T00:13:23;13.15;;;4.57;;
15629;SDS011;7914;50.842;0.166;2024-02-15T00:15:49;14.25;;;4.50;;
15629;SDS011;7914;50.842;0.166;2024-02-15T00:18:15;19.58;;;5.07;;
15629;SDS011;7914;50.842;0.166;2024-02-15T00:20:41;16.27;;;5.70;;
15629;SDS011;7914;50.842;0.166;2024-02-15T00:23:09;13.88;;;5.25;;
15629;SDS011;7914;50.842;0.166;2024-02-15T00:25:34;14.45;;;5.78;;
15629;SDS011;7914;50.842;0.166;2024-02-15T00:28:00;14.52;;;4.40;;
15629;SDS011;7914;50.842;0.166;2024-02-15T00:30:27;16.98;;;5.13;;
15629;SDS011;7914;50.842;0.166;2024-02-15T00:32:56;13.98;;;4.93;;
15629;SDS011;7914;50.842;0.166;2024-02-15T00:35:22;15.20;;;4.40;;
15629;SDS011;7914;50.842;0.166;2024-02-15T00:37:48;12.10;;;4.03;;
15629;SDS011;7914;50.842;0.166;2024-02-15T00:40:15;14.70;;;4.53;;
15629;SDS011;7914;50.842;0.166;2024-02-15T00:42:41;12.23;;;4.25;;
15629;SDS011;7914;50.842;0.166;2024-02-15T00:45:07;11.48;;;4.63;;
15629;SDS011;7914;50.842;0.166;2024-02-15T00:47:34;9.30;;;4.50;;
15629;SDS011;7914;50.842;0.166;2024-02-15T00:49:59;14.80;;;4.68;;
15629;SDS011;7914;50.842;0.166;2024-02-15T00:52:25;11.90;;;4.20;;
15629;SDS011;7914;50.842;0.166;2024-02-15T00:54:51;10.80;;;2.83;;
15629;SDS011;7914;50.842;0.166;2024-02-15T00:57:16;9.50;;;2.42;;
15629;SDS011;7914;50.842;0.166;2024-02-15T00:59:42;7.85;;;2.13;;
15629;SDS011;7914;50.842;0.166;2024-02-15T01:02:08;7.28;;;2.35;;
15629;SDS011;7914;50.842;0.166;2024-02-15T01:04:34;6.55;;;2.50;;
15629;SDS011;7914;50.842;0.166;2024-02-15T01:07:00;9.10;;;3.25;;
15629;SDS011;7914;50.842;0.166;2024-02-15T01:09:26;8.40;;;3.45;;
15629;SDS011;7914;50.842;0.166;2024-02-15T01:11:52;12.55;;;3.38;;
15629;SDS011;7914;50.842;0.166;2024-02-15T01:14:17;6.68;;;2.80;;
15629;SDS011;7914;50.842;0.166;2024-02-15T01:16:43;7.32;;;2.53;;
15629;SDS011;7914;50.842;0.166;2024-02-15T01:19:09;7.75;;;2.92;;
15629;SDS011;7914;50.842;0.166;2024-02-15T01:21:35;11.60;;;3.22;;
15629;SDS011;7914;50.842;0.166;2024-02-15T01:24:02;8.73;;;3.30;;
15629;SDS011;7914;50.842;0.166;2024-02-15T01:26:28;9.57;;;3.25;;
15629;SDS011;7914;50.842;0.166;2024-02-15T01:28:57;8.10;;;3.33;;
15629;SDS011;7914;50.842;0.166;2024-02-15T01:31:23;8.63;;;3.22;;
15629;SDS011;7914;50.842;0.166;2024-02-15T01:33:49;9.18;;;3.85;;
15629;SDS011;7914;50.842;0.166;2024-02-15T01:36:18;8.98;;;3.63;;
15629;SDS011;7914;50.842;0.166;2024-02-15T01:38:44;10.82;;;3.90;;
15629;SDS011;7914;50.842;0.166;2024-02-15T01:41:10;8.27;;;3.78;;
15629;SDS011;7914;50.842;0.166;2024-02-15T01:43:36;11.85;;;4.38;;
15629;SDS011;7914;50.842;0.166;2024-02-15T01:46:07;9.73;;;3.80;;
15629;SDS011;7914;50.842;0.166;2024-02-15T01:48:35;7.70;;;2.90;;
15629;SDS011;7914;50.842;0.166;2024-02-15T01:51:02;7.47;;;2.55;;
15629;SDS011;7914;50.842;0.166;2024-02-15T01:53:29;6.60;;;2.47;;
15629;SDS011;7914;50.842;0.166;2024-02-15T01:55:55;8.73;;;2.85;;
15629;SDS011;7914;50.842;0.166;2024-02-15T01:58:23;10.38;;;4.10;;
15629;SDS011;7914;50.842;0.166;2024-02-15T02:00:51;6.78;;;2.88;;
15629;SDS011;7914;50.842;0.166;2024-02-15T02:03:18;7.00;;;2.42;;
15629;SDS011;7914;50.842;0.166;2024-02-15T02:05:46;8.52;;;2.78;;
15629;SDS011;7914;50.842;0.166;2024-02-15T02:08:12;6.95;;;2.67;;
15629;SDS011;7914;50.842;0.166;2024-02-15T02:10:38;7.57;;;3.05;;
15629;SDS011;7914;50.842;0.166;2024-02-15T02:13:05;7.38;;;2.65;;
15629;SDS011;7914;50.842;0.166;2024-02-15T02:15:31;11.38;;;2.60;;
15629;SDS011;7914;50.842;0.166;2024-02-15T02:17:57;8.55;;;2.70;;
15629;SDS011;7914;50.842;0.166;2024-02-15T02:20:25;7.25;;;3.10;;
15629;SDS011;7914;50.842;0.166;2024-02-15T02:22:53;8.73;;;3.22;;
15629;SDS011;7914;50.842;0.166;2024-02-15T02:25:24;9.90;;;3.28;;
15629;SDS011;7914;50.842;0.166;2024-02-15T02:27:51;7.82;;;3.17;;
15629;SDS011;7914;50.842;0.166;2024-02-15T02:30:17;8.23;;;2.92;;
15629;SDS011;7914;50.842;0.166;2024-02-15T02:32:44;9.30;;;3.65;;
15629;SDS011;7914;50.842;0.166;2024-02-15T02:35:11;9.25;;;4.18;;
15629;SDS011;7914;50.842;0.166;2024-02-15T02:37:38;8.00;;;3.30;;
15629;SDS011;7914;50.842;0.166;2024-02-15T02:40:07;6.97;;;2.42;;
15629;SDS011;7914;50.842;0.166;2024-02-15T02:42:46;8.13;;;2.75;;
15629;SDS011;7914;50.842;0.166;2024-02-15T02:45:21;6.43;;;2.60;;
15629;SDS011;7914;50.842;0.166;2024-02-15T02:47:50;10.75;;;3.22;;
15629;SDS011;7914;50.842;0.166;2024-02-15T02:50:16;11.20;;;4.47;;
15629;SDS011;7914;50.842;0.166;2024-02-15T02:52:42;13.77;;;4.97;;
15629;SDS011;7914;50.842;0.166;2024-02-15T02:55:09;11.90;;;4.63;;
15629;SDS011;7914;50.842;0.166;2024-02-15T02:57:36;9.77;;;3.08;;
15629;SDS011;7914;50.842;0.166;2024-02-15T03:00:07;6.95;;;3.00;;
15629;SDS011;7914;50.842;0.166;2024-02-15T03:02:38;8.75;;;2.75;;
15629;SDS011;7914;50.842;0.166;2024-02-15T03:05:04;9.25;;;3.30;;
15629;SDS011;7914;50.842;0.166;2024-02-15T03:07:37;10.38;;;4.28;;
15629;SDS011;7914;50.842;0.166;2024-02-15T03:10:06;10.20;;;4.38;;
15629;SDS011;7914;50.842;0.166;2024-02-15T03:12:33;10.25;;;3.88;;
15629;SDS011;7914;50.842;0.166;2024-02-15T03:15:01;9.65;;;4.30;;
15629;SDS011;7914;50.842;0.166;2024-02-15T03:17:31;13.23;;;3.58;;
15629;SDS011;7914;50.842;0.166;2024-02-15T03:19:57;10.68;;;3.10;;
15629;SDS011;7914;50.842;0.166;2024-02-15T03:22:24;10.48;;;3.50;;
15629;SDS011;7914;50.842;0.166;2024-02-15T03:24:51;12.95;;;4.68;;
15629;SDS011;7914;50.842;0.166;2024-02-15T03:27:17;17.05;;;5.72;;
15629;SDS011;7914;50.842;0.166;2024-02-15T03:29:43;21.55;;;5.97;;
15629;SDS011;7914;50.842;0.166;2024-02-15T03:32:08;17.83;;;6.90;;
15629;SDS011;7914;50.842;0.166;2024-02-15T03:34:36;25.35;;;7.28;;
15629;SDS011;7914;50.842;0.166;2024-02-15T03:39:30;22.88;;;7.90;;
15629;SDS011;7914;50.842;0.166;2024-02-15T03:41:56;18.45;;;8.18;;
15629;SDS011;7914;50.842;0.166;2024-02-15T03:44:23;19.92;;;7.75;;
15629;SDS011;7914;50.842;0.166;2024-02-15T03:46:51;19.83;;;8.13;;
15629;SDS011;7914;50.842;0.166;2024-02-15T03:49:18;24.40;;;7.22;;
15629;SDS011;7914;50.842;0.166;2024-02-15T03:51:44;16.95;;;6.47;;
15629;SDS011;7914;50.842;0.166;2024-02-15T03:54:12;17.30;;;6.32;;
15629;SDS011;7914;50.842;0.166;2024-02-15T03:56:48;17.80;;;6.40;;
15629;SDS011;7914;50.842;0.166;2024-02-15T03:59:18;15.48;;;6.63;;
15629;SDS011;7914;50.842;0.166;2024-02-15T04:01:52;21.55;;;6.88;;
15629;SDS011;7914;50.842;0.166;2024-02-15T04:04:18;20.30;;;7.53;;
15629;SDS011;7914;50.842;0.166;2024-02-15T04:06:47;18.67;;;6.20;;
15629;SDS011;7914;50.842;0.166;2024-02-15T04:09:16;24.02;;;6.95;;
15629;SDS011;7914;50.842;0.166;2024-02-15T04:11:43;18.40;;;6.18;;
15629;SDS011;7914;50.842;0.166;2024-02-15T04:14:12;14.25;;;6.13;;
15629;SDS011;7914;50.842;0.166;2024-02-15T04:16:38;16.88;;;7.18;;
15629;SDS011;7914;50.842;0.166;2024-02-15T04:19:04;13.93;;;5.90;;
15629;SDS011;7914;50.842;0.166;2024-02-15T04:21:30;15.07;;;6.07;;
15629;SDS011;7914;50.842;0.166;2024-02-15T04:23:56;19.13;;;7.03;;
15629;SDS011;7914;50.842;0.166;2024-02-15T04:26:21;21.15;;;6.43;;
15629;SDS011;7914;50.842;0.166;2024-02-15T04:28:51;16.17;;;6.15;;
15629;SDS011;7914;50.842;0.166;2024-02-15T04:33:52;15.60;;;4.90;;
15629;SDS011;7914;50.842;0.166;2024-02-15T04:36:18;16.38;;;7.43;;
15629;SDS011;7914;50.842;0.166;2024-02-15T04:38:48;12.98;;;6.85;;
15629;SDS011;7914;50.842;0.166;2024-02-15T04:41:15;18.42;;;7.38;;
15629;SDS011;7914;50.842;0.166;2024-02-15T04:43:47;18.15;;;7.88;;
15629;SDS011;7914;50.842;0.166;2024-02-15T04:46:13;16.08;;;7.00;;
15629;SDS011;7914;50.842;0.166;2024-02-15T04:48:39;17.92;;;8.35;;
15629;SDS011;7914;50.842;0.166;2024-02-15T04:51:09;21.10;;;6.57;;
15629;SDS011;7914;50.842;0.166;2024-02-15T04:53:36;14.55;;;6.22;;
15629;SDS011;7914;50.842;0.166;2024-02-15T04:56:04;15.75;;;6.43;;
15629;SDS011;7914;50.842;0.166;2024-02-15T04:58:39;19.95;;;5.38;;
15629;SDS011;7914;50.842;0.166;2024-02-15T05:01:15;17.65;;;5.80;;
15629;SDS011;7914;50.842;0.166;2024-02-15T05:03:42;16.50;;;5.30;;
15629;SDS011;7914;50.842;0.166;2024-02-15T05:06:09;12.13;;;4.82;;
15629;SDS011;7914;50.842;0.166;2024-02-15T05:08:37;14.00;;;5.20;;
15629;SDS011;7914;50.842;0.166;2024-02-15T05:11:08;12.70;;;4.80;;
15629;SDS011;7914;50.842;0.166;2024-02-15T05:13:45;14.48;;;4.95;;
15629;SDS011;7914;50.842;0.166;2024-02-15T05:16:11;17.15;;;4.82;;
15629;SDS011;7914;50.842;0.166;2024-02-15T05:18:37;13.10;;;5.13;;
15629;SDS011;7914;50.842;0.166;2024-02-15T05:21:05;11.30;;;4.70;;
15629;SDS011;7914;50.842;0.166;2024-02-15T05:23:40;16.48;;;5.22;;
15629;SDS011;7914;50.842;0.166;2024-02-15T05:26:07;9.50;;;3.80;;
15629;SDS011;7914;50.842;0.166;2024-02-15T05:28:33;9.18;;;3.60;;
15629;SDS011;7914;50.842;0.166;2024-02-15T05:31:17;16.33;;;4.40;;
15629;SDS011;7914;50.842;0.166;2024-02-15T05:33:52;13.75;;;4.05;;
15629;SDS011;7914;50.842;0.166;2024-02-15T05:36:20;9.80;;;3.45;;
15629;SDS011;7914;50.842;0.166;2024-02-15T05:38:48;7.88;;;2.85;;
15629;SDS011;7914;50.842;0.166;2024-02-15T05:41:15;14.15;;;3.65;;
15629;SDS011;7914;50.842;0.166;2024-02-15T05:43:41;10.13;;;3.95;;
15629;SDS011;7914;50.842;0.166;2024-02-15T05:46:07;8.98;;;3.10;;
15629;SDS011;7914;50.842;0.166;2024-02-15T05:48:34;9.43;;;3.50;;
15629;SDS011;7914;50.842;0.166;2024-02-15T05:51:01;12.45;;;3.38;;
15629;SDS011;7914;50.842;0.166;2024-02-15T05:53:29;14.93;;;3.53;;
15629;SDS011;7914;50.842;0.166;2024-02-15T05:55:55;12.40;;;3.15;;
15629;SDS011;7914;50.842;0.166;2024-02-15T05:58:26;12.10;;;3.47;;
15629;SDS011;7914;50.842;0.166;2024-02-15T06:00:51;9.10;;;2.42;;
15629;SDS011;7914;50.842;0.166;2024-02-15T06:03:18;11.57;;;3.22;;
15629;SDS011;7914;50.842;0.166;2024-02-15T06:05:48;11.57;;;2.90;;
15629;SDS011;7914;50.842;0.166;2024-02-15T06:08:13;7.47;;;2.45;;
15629;SDS011;7914;50.842;0.166;2024-02-15T06:10:39;11.50;;;3.38;;
15629;SDS011;7914;50.842;0.166;2024-02-15T06:13:06;9.68;;;2.63;;
15629;SDS011;7914;50.842;0.166;2024-02-15T06:18:00;8.15;;;2.55;;
15629;SDS011;7914;50.842;0.166;2024-02-15T06:20:26;9.65;;;3.17;;
15629;SDS011;7914;50.842;0.166;2024-02-15T06:22:55;7.53;;;2.70;;
15629;SDS011;7914;50.842;0.166;2024-02-15T06:25:20;10.20;;;3.15;;
15629;SDS011;7914;50.842;0.166;2024-02-15T06:27:47;11.23;;;3.10;;
15629;SDS011;7914;50.842;0.166;2024-02-15T06:30:14;10.70;;;3.28;;
15629;SDS011;7914;50.842;0.166;2024-02-15T06:32:58;13.75;;;2.85;;
15629;SDS011;7914;50.842;0.166;2024-02-15T06:35:43;8.38;;;4.05;;
15629;SDS011;7914;50.842;0.166;2024-02-15T06:38:27;10.00;;;2.60;;
15629;SDS011;7914;50.842;0.166;2024-02-15T06:41:12;14.88;;;3.08;;
15629;SDS011;7914;50.842;0.166;2024-02-15T06:43:38;13.32;;;4.10;;
15629;SDS011;7914;50.842;0.166;2024-02-15T06:46:08;10.02;;;3.25;;
15629;SDS011;7914;50.842;0.166;2024-02-15T06:48:35;7.82;;;2.80;;
15629;SDS011;7914;50.842;0.166;2024-02-15T06:51:02;9.27;;;2.42;;
15629;SDS011;7914;50.842;0.166;2024-02-15T06:53:29;9.82;;;2.60;;
15629;SDS011;7914;50.842;0.166;2024-02-15T06:55:55;12.13;;;2.80;;
15629;SDS011;7914;50.842;0.166;2024-02-15T06:58:21;19.85;;;2.83;;
15629;SDS011;7914;50.842;0.166;2024-02-15T07:00:47;11.50;;;2.92;;
15629;SDS011;7914;50.842;0.166;2024-02-15T07:03:15;11.50;;;3.03;;
15629;SDS011;7914;50.842;0.166;2024-02-15T07:05:42;9.27;;;3.53;;
15629;SDS011;7914;50.842;0.166;2024-02-15T07:08:08;8.80;;;2.97;;
15629;SDS011;7914;50.842;0.166;2024-02-15T07:10:40;10.60;;;2.90;;
15629;SDS011;7914;50.842;0.166;2024-02-15T07:13:06;14.20;;;2.78;;
15629;SDS011;7914;50.842;0.166;2024-02-15T07:15:33;7.75;;;2.58;;
15629;SDS011;7914;50.842;0.166;2024-02-15T07:18:03;11.18;;;2.80;;
15629;SDS011;7914;50.842;0.166;2024-02-15T07:20:31;10.63;;;2.53;;
15629;SDS011;7914;50.842;0.166;2024-02-15T07:22:57;6.70;;;2.60;;
15629;SDS011;7914;50.842;0.166;2024-02-15T07:25:23;9.05;;;2.55;;
15629;SDS011;7914;50.842;0.166;2024-02-15T07:27:49;7.18;;;2.60;;
15629;SDS011;7914;50.842;0.166;2024-02-15T07:30:15;6.63;;;2.72;;
15629;SDS011;7914;50.842;0.166;2024-02-15T07:32:40;9.73;;;2.97;;
15629;SDS011;7914;50.842;0.166;2024-02-15T07:35:06;9.48;;;2.30;;
15629;SDS011;7914;50.842;0.166;2024-02-15T07:37:33;9.68;;;3.17;;
15629;SDS011;7914;50.842;0.166;2024-02-15T07:39:59;7.25;;;2.45;;
15629;SDS011;7914;50.842;0.166;2024-02-15T07:42:25;9.38;;;2.42;;
15629;SDS011;7914;50.842;0.166;2024-02-15T07:44:54;9.27;;;2.95;;
15629;SDS011;7914;50.842;0.166;2024-02-15T07:47:19;7.97;;;3.15;;
15629;SDS011;7914;50.842;0.166;2024-02-15T07:49:46;10.50;;;2.95;;
15629;SDS011;7914;50.842;0.166;2024-02-15T07:52:11;6.47;;;2.30;;
15629;SDS011;7914;50.842;0.166;2024-02-15T07:54:38;7.53;;;2.22;;
15629;SDS011;7914;50.842;0.166;2024-02-15T07:57:04;10.38;;;2.83;;
15629;SDS011;7914;50.842;0.166;2024-02-15T07:59:30;6.72;;;2.53;;
15629;SDS011;7914;50.842;0.166;2024-02-15T08:01:56;8.88;;;3.63;;
15629;SDS011;7914;50.842;0.166;2024-02-15T08:04:23;7.68;;;2.28;;
15629;SDS011;7914;50.842;0.166;2024-02-15T08:06:50;7.60;;;2.33;;
15629;SDS011;7914;50.842;0.166;2024-02-15T08:09:18;9.88;;;2.22;;
15629;SDS011;7914;50.842;0.166;2024-02-15T08:11:46;6.60;;;2.10;;
15629;SDS011;7914;50.842;0.166;2024-02-15T08:14:12;6.75;;;2.10;;
15629;SDS011;7914;50.842;0.166;2024-02-15T08:16:38;8.82;;;2.22;;
15629;SDS011;7914;50.842;0.166;2024-02-15T08:19:05;6.65;;;2.42;;
15629;SDS011;7914;50.842;0.166;2024-02-15T08:21:32;6.75;;;2.40;;
15629;SDS011;7914;50.842;0.166;2024-02-15T08:24:01;7.60;;;2.38;;
15629;SDS011;7914;50.842;0.166;2024-02-15T08:26:35;14.35;;;2.30;;
15629;SDS011;7914;50.842;0.166;2024-02-15T08:29:03;10.20;;;2.38;;
15629;SDS011;7914;50.842;0.166;2024-02-15T08:31:29;11.85;;;2.40;;
15629;SDS011;7914;50.842;0.166;2024-02-15T08:34:02;6.28;;;2.10;;
15629;SDS011;7914;50.842;0.166;2024-02-15T08:36:30;5.53;;;2.00;;
15629;SDS011;7914;50.842;0.166;2024-02-15T08:38:56;7.60;;;1.80;;
15629;SDS011;7914;50.842;0.166;2024-02-15T08:41:22;9.73;;;2.10;;
15629;SDS011;7914;50.842;0.166;2024-02-15T08:43:52;7.43;;;2.47;;
15629;SDS011;7914;50.842;0.166;2024-02-15T08:46:19;9.65;;;2.20;;
15629;SDS011;7914;50.842;0.166;2024-02-15T08:48:46;6.22;;;1.67;;
15629;SDS011;7914;50.842;0.166;2024-02-15T08:51:12;6.55;;;2.08;;
15629;SDS011;7914;50.842;0.166;2024-02-15T08:53:38;7.50;;;2.47;;
15629;SDS011;7914;50.842;0.166;2024-02-15T08:56:04;7.30;;;2.60;;
15629;SDS011;7914;50.842;0.166;2024-02-15T08:58:30;12.25;;;2.70;;
15629;SDS011;7914;50.842;0.166;2024-02-15T09:00:56;13.43;;;3.92;;
15629;SDS011;7914;50.842;0.166;2024-02-15T09:03:23;6.00;;;2.53;;
15629;SDS011;7914;50.842;0.166;2024-02-15T09:05:49;7.15;;;2.80;;
15629;SDS011;7914;50.842;0.166;2024-02-15T09:08:15;6.80;;;2.00;;
15629;SDS011;7914;50.842;0.166;2024-02-15T09:10:41;6.25;;;2.30;;
15629;SDS011;7914;50.842;0.166;2024-02-15T09:13:07;7.82;;;1.85;;
15629;SDS011;7914;50.842;0.166;2024-02-15T09:15:33;7.10;;;1.73;;
15629;SDS011;7914;50.842;0.166;2024-02-15T09:18:00;5.22;;;1.65;;
15629;SDS011;7914;50.842;0.166;2024-02-15T09:20:26;5.13;;;1.80;;
15629;SDS011;7914;50.842;0.166;2024-02-15T09:22:53;3.85;;;1.40;;
15629;SDS011;7914;50.842;0.166;2024-02-15T09:25:22;6.07;;;1.90;;
15629;SDS011;7914;50.842;0.166;2024-02-15T09:27:50;6.55;;;1.77;;
15629;SDS011;7914;50.842;0.166;2024-02-15T09:30:17;6.30;;;1.70;;
15629;SDS011;7914;50.842;0.166;2024-02-15T09:32:43;6.50;;;1.90;;
15629;SDS011;7914;50.842;0.166;2024-02-15T09:35:10;5.80;;;2.30;;
15629;SDS011;7914;50.842;0.166;2024-02-15T09:37:37;4.57;;;1.60;;
15629;SDS011;7914;50.842;0.166;2024-02-15T09:42:35;5.78;;;2.15;;
15629;SDS011;7914;50.842;0.166;2024-02-15T09:45:02;4.00;;;1.80;;
15629;SDS011;7914;50.842;0.166;2024-02-15T09:47:34;7.90;;;2.25;;
15629;SDS011;7914;50.842;0.166;2024-02-15T09:50:09;4.32;;;1.58;;
15629;SDS011;7914;50.842;0.166;2024-02-15T09:52:39;11.07;;;2.25;;
15629;SDS011;7914;50.842;0.166;2024-02-15T09:55:08;5.40;;;1.75;;
15629;SDS011;7914;50.842;0.166;2024-02-15T09:57:38;7.07;;;1.90;;
15629;SDS011;7914;50.842;0.166;2024-02-15T10:00:04;8.43;;;2.38;;
15629;SDS011;7914;50.842;0.166;2024-02-15T10:02:38;6.63;;;2.05;;
15629;SDS011;7914;50.842;0.166;2024-02-15T10:05:05;8.77;;;2.35;;
15629;SDS011;7914;50.842;0.166;2024-02-15T10:07:37;6.63;;;2.38;;
15629;SDS011;7914;50.842;0.166;2024-02-15T10:10:19;6.28;;;2.05;;
15629;SDS011;7914;50.842;0.166;2024-02-15T10:12:47;5.88;;;2.15;;
15629;SDS011;7914;50.842;0.166;2024-02-15T10:18:09;4.93;;;1.75;;
15629;SDS011;7914;50.842;0.166;2024-02-15T10:20:40;6.90;;;1.92;;
15629;SDS011;7914;50.842;0.166;2024-02-15T10:23:15;4.90;;;1.90;;
15629;SDS011;7914;50.842;0.166;2024-02-15T10:25:44;7.57;;;2.20;;
15629;SDS011;7914;50.842;0.166;2024-02-15T10:28:10;6.03;;;2.10;;
15629;SDS011;7914;50.842;0.166;2024-02-15T10:30:37;8.02;;;2.45;;
15629;SDS011;7914;50.842;0.166;2024-02-15T10:33:08;6.50;;;2.00;;
15629;SDS011;7914;50.842;0.166;2024-02-15T10:36:05;5.85;;;2.15;;
15629;SDS011;7914;50.842;0.166;2024-02-15T10:38:34;4.40;;;1.85;;
15629;SDS011;7914;50.842;0.166;2024-02-15T10:41:04;6.30;;;1.95;;
15629;SDS011;7914;50.842;0.166;2024-02-15T10:43:33;5.32;;;1.63;;
15629;SDS011;7914;50.842;0.166;2024-02-15T10:46:02;5.65;;;1.83;;
15629;SDS011;7914;50.842;0.166;2024-02-15T10:48:28;4.45;;;1.88;;
15629;SDS011;7914;50.842;0.166;2024-02-15T10:50:54;6.22;;;1.50;;
15629;SDS011;7914;50.842;0.166;2024-02-15T10:53:27;4.97;;;1.85;;
15629;SDS011;7914;50.842;0.166;2024-02-15T10:56:15;4.53;;;1.83;;
15629;SDS011;7914;50.842;0.166;2024-02-15T10:58:49;7.15;;;1.80;;
15629;SDS011;7914;50.842;0.166;2024-02-15T11:01:19;5.30;;;1.55;;
15629;SDS011;7914;50.842;0.166;2024-02-15T11:03:51;7.47;;;1.80;;
15629;SDS011;7914;50.842;0.166;2024-02-15T11:06:21;3.65;;;1.30;;
15629;SDS011;7914;50.842;0.166;2024-02-15T11:08:51;6.38;;;1.58;;
15629;SDS011;7914;50.842;0.166;2024-02-15T11:11:18;5.38;;;1.73;;
15629;SDS011;7914;50.842;0.166;2024-02-15T11:13:46;7.35;;;1.67;;
15629;SDS011;7914;50.842;0.166;2024-02-15T11:19:04;6.03;;;1.75;;
15629;SDS011;7914;50.842;0.166;2024-02-15T11:22:15;8.07;;;1.83;;
15629;SDS011;7914;50.842;0.166;2024-02-15T11:24:26;4.82;;;1.48;;
15629;SDS011;7914;50.842;0.166;2024-02-15T11:26:53;5.97;;;1.75;;
15629;SDS011;7914;50.842;0.166;2024-02-15T11:29:48;6.45;;;1.52;;
15629;SDS011;7914;50.842;0.166;2024-02-15T11:35:09;5.63;;;1.45;;
15629;SDS011;7914;50.842;0.166;2024-02-15T11:40:19;4.05;;;1.38;;
15629;SDS011;7914;50.842;0.166;2024-02-15T11:42:59;6.78;;;1.50;;
15629;SDS011;7914;50.842;0.166;2024-02-15T11:45:28;3.50;;;1.25;;
15629;SDS011;7914;50.842;0.166;2024-02-15T11:48:09;4.68;;;2.05;;
15629;SDS011;7914;50.842;0.166;2024-02-15T11:50:37;4.57;;;1.30;;
15629;SDS011;7914;50.842;0.166;2024-02-15T11:53:05;4.93;;;1.42;;
15629;SDS011;7914;50.842;0.166;2024-02-15T11:55:34;2.97;;;1.20;;
15629;SDS011;7914;50.842;0.166;2024-02-15T11:58:04;5.10;;;1.50;;
15629;SDS011;7914;50.842;0.166;2024-02-15T12:00:43;4.28;;;1.33;;
15629;SDS011;7914;50.842;0.166;2024-02-15T12:03:28;8.23;;;1.88;;
15629;SDS011;7914;50.842;0.166;2024-02-15T12:06:12;5.13;;;1.60;;
15629;SDS011;7914;50.842;0.166;2024-02-15T12:09:01;6.43;;;1.60;;
15629;SDS011;7914;50.842;0.166;2024-02-15T12:11:46;4.38;;;1.40;;
15629;SDS011;7914;50.842;0.166;2024-02-15T12:14:31;5.68;;;1.52;;
15629;SDS011;7914;50.842;0.166;2024-02-15T12:17:15;5.28;;;1.50;;
15629;SDS011;7914;50.842;0.166;2024-02-15T12:20:00;4.72;;;1.40;;
15629;SDS011;7914;50.842;0.166;2024-02-15T12:22:32;4.25;;;1.50;;
15629;SDS011;7914;50.842;0.166;2024-02-15T12:25:15;4.68;;;1.50;;
15629;SDS011;7914;50.842;0.166;2024-02-15T12:27:46;4.07;;;1.45;;
15629;SDS011;7914;50.842;0.166;2024-02-15T12:30:17;5.80;;;1.88;;
15629;SDS011;7914;50.842;0.166;2024-02-15T12:32:50;4.63;;;1.52;;
15629;SDS011;7914;50.842;0.166;2024-02-15T12:35:18;5.13;;;1.40;;
15629;SDS011;7914;50.842;0.166;2024-02-15T12:37:45;5.07;;;1.50;;
15629;SDS011;7914;50.842;0.166;2024-02-15T12:40:12;3.20;;;1.23;;
15629;SDS011;7914;50.842;0.166;2024-02-15T12:42:43;4.30;;;1.42;;
15629;SDS011;7914;50.842;0.166;2024-02-15T12:45:19;5.57;;;1.45;;
15629;SDS011;7914;50.842;0.166;2024-02-15T12:47:49;3.85;;;1.30;;
15629;SDS011;7914;50.842;0.166;2024-02-15T12:50:20;5.93;;;1.52;;
15629;SDS011;7914;50.842;0.166;2024-02-15T12:52:47;4.35;;;1.83;;
15629;SDS011;7914;50.842;0.166;2024-02-15T12:55:17;5.70;;;1.60;;
15629;SDS011;7914;50.842;0.166;2024-02-15T12:57:50;5.32;;;1.50;;
15629;SDS011;7914;50.842;0.166;2024-02-15T13:00:21;6.00;;;1.58;;
15629;SDS011;7914;50.842;0.166;2024-02-15T13:02:53;10.38;;;2.00;;
15629;SDS011;7914;50.842;0.166;2024-02-15T13:05:21;7.53;;;1.85;;
15629;SDS011;7914;50.842;0.166;2024-02-15T13:07:51;5.63;;;1.85;;
15629;SDS011;7914;50.842;0.166;2024-02-15T13:10:20;5.47;;;1.60;;
15629;SDS011;7914;50.842;0.166;2024-02-15T13:12:47;4.93;;;1.52;;
15629;SDS011;7914;50.842;0.166;2024-02-15T13:15:14;5.20;;;1.58;;
15629;SDS011;7914;50.842;0.166;2024-02-15T13:17:45;6.13;;;1.85;;
15629;SDS011;7914;50.842;0.166;2024-02-15T13:20:14;4.78;;;1.30;;
15629;SDS011;7914;50.842;0.166;2024-02-15T13:22:42;4.93;;;1.70;;
15629;SDS011;7914;50.842;0.166;2024-02-15T13:25:13;4.18;;;1.50;;
15629;SDS011;7914;50.842;0.166;2024-02-15T13:27:42;8.15;;;2.08;;
15629;SDS011;7914;50.842;0.166;2024-02-15T13:30:08;4.82;;;1.77;;
15629;SDS011;7914;50.842;0.166;2024-02-15T13:32:35;4.43;;;1.40;;
15629;SDS011;7914;50.842;0.166;2024-02-15T13:35:02;5.03;;;1.50;;
15629;SDS011;7914;50.842;0.166;2024-02-15T13:37:37;8.07;;;2.30;;
15629;SDS011;7914;50.842;0.166;2024-02-15T13:40:05;5.68;;;1.70;;
15629;SDS011;7914;50.842;0.166;2024-02-15T13:45:15;5.05;;;1.60;;
15629;SDS011;7914;50.842;0.166;2024-02-15T13:47:44;6.57;;;2.20;;
15629;SDS011;7914;50.842;0.166;2024-02-15T13:50:11;6.50;;;1.85;;
15629;SDS011;7914;50.842;0.166;2024-02-15T13:52:40;7.45;;;1.92;;
15629;SDS011;7914;50.842;0.166;2024-02-15T13:55:09;6.45;;;1.60;;
15629;SDS011;7914;50.842;0.166;2024-02-15T13:57:46;7.40;;;1.90;;
15629;SDS011;7914;50.842;0.166;2024-02-15T14:00:13;5.57;;;1.73;;
15629;SDS011;7914;50.842;0.166;2024-02-15T14:02:52;6.78;;;1.90;;
15629;SDS011;7914;50.842;0.166;2024-02-15T14:05:22;5.45;;;1.60;;
15629;SDS011;7914;50.842;0.166;2024-02-15T14:07:51;5.30;;;1.30;;
15629;SDS011;7914;50.842;0.166;2024-02-15T14:10:19;6.40;;;1.70;;
15629;SDS011;7914;50.842;0.166;2024-02-15T14:12:49;4.43;;;1.55;;
15629;SDS011;7914;50.842;0.166;2024-02-15T14:15:27;4.97;;;1.63;;
15629;SDS011;7914;50.842;0.166;2024-02-15T14:17:53;7.00;;;1.80;;
15629;SDS011;7914;50.842;0.166;2024-02-15T14:20:21;7.97;;;2.38;;
15629;SDS011;7914;50.842;0.166;2024-02-15T14:22:47;10.52;;;2.25;;
15629;SDS011;7914;50.842;0.166;2024-02-15T14:25:14;9.60;;;4.05;;
15629;SDS011;7914;50.842;0.166;2024-02-15T14:27:41;9.52;;;3.10;;
15629;SDS011;7914;50.842;0.166;2024-02-15T14:30:08;9.10;;;2.35;;
15629;SDS011;7914;50.842;0.166;2024-02-15T14:32:52;8.35;;;2.65;;
15629;SDS011;7914;50.842;0.166;2024-02-15T14:38:01;6.78;;;1.80;;
15629;SDS011;7914;50.842;0.166;2024-02-15T14:40:38;6.72;;;1.83;;
15629;SDS011;7914;50.842;0.166;2024-02-15T14:43:06;5.53;;;1.98;;
15629;SDS011;7914;50.842;0.166;2024-02-15T14:45:35;10.30;;;2.13;;
15629;SDS011;7914;50.842;0.166;2024-02-15T14:48:06;5.40;;;1.88;;
15629;SDS011;7914;50.842;0.166;2024-02-15T14:50:35;5.40;;;1.90;;
15629;SDS011;7914;50.842;0.166;2024-02-15T14:53:01;6.38;;;1.63;;
15629;SDS011;7914;50.842;0.166;2024-02-15T14:55:27;5.63;;;1.80;;
15629;SDS011;7914;50.842;0.166;2024-02-15T14:57:55;6.25;;;1.85;;
15629;SDS011;7914;50.842;0.166;2024-02-15T15:00:21;7.07;;;2.13;;
15629;SDS011;7914;50.842;0.166;2024-02-15T15:02:48;9.38;;;1.95;;
15629;SDS011;7914;50.842;0.166;2024-02-15T15:05:14;4.43;;;1.50;;
15629;SDS011;7914;50.842;0.166;2024-02-15T15:08:00;7.68;;;1.83;;
15629;SDS011;7914;50.842;0.166;2024-02-15T15:10:45;5.53;;;1.83;;
15629;SDS011;7914;50.842;0.166;2024-02-15T15:13:31;10.80;;;2.08;;
15629;SDS011;7914;50.842;0.166;2024-02-15T15:15:57;6.53;;;1.80;;
15629;SDS011;7914;50.842;0.166;2024-02-15T15:18:24;7.00;;;1.80;;
15629;SDS011;7914;50.842;0.166;2024-02-15T15:20:49;7.07;;;1.88;;
15629;SDS011;7914;50.842;0.166;2024-02-15T15:23:16;4.97;;;1.63;;
15629;SDS011;7914;50.842;0.166;2024-02-15T15:25:42;3.80;;;1.48;;
15629;SDS011;7914;50.842;0.166;2024-02-15T15:28:08;5.85;;;1.73;;
15629;SDS011;7914;50.842;0.166;2024-02-15T15:30:34;6.70;;;1.60;;
15629;SDS011;7914;50.842;0.166;2024-02-15T15:32:59;5.45;;;1.67;;
15629;SDS011;7914;50.842;0.166;2024-02-15T15:35:26;7.68;;;1.98;;